Time;durP1;ratioP1;P1;durP2;ratioP2;P2;SDS_P1;SDS_P2;PMS_P1;PMS_P2;Temp;Humidity;BMP_temperature;BMP_pressure;BME280_temperature;BME280_humidity;BME280_pressure;Samples;Min_cycle;Max_cycle;Signal;HPM_P1;HPM_P2
2023/04/30 00:00:09;;;;;;;;;;;;;;;;;;5061405;28;20371;-60
2023/04/30 00:02:35;;;;;;;;;;;;;;;;;;5054541;28;20277;-60
2023/04/30 00:05:01;;;;;;;;;;;;;;;;;;5063659;28;19945;-60
2023/04/30 00:07:27;;;;;;;;;;;;;;;;;;5053939;28;19956;-60
2023/04/30 00:09:52;;;;;;;;;;;;;;;;;;5051948;28;19976;-60
2023/04/30 00:12:18;;;;;;;;;;;;;;;;;;5053278;28;19917;-60
2023/04/30 00:14:44;;;;;;;;;;;;;;;;;;5052114;28;20750;-60
2023/04/30 00:17:10;;;;;;;;;;;;;;;;;;5068205;28;19999;-60
2023/04/30 00:19:36;;;;;;;;;;;;;;;;;;5073287;28;19908;-60
2023/04/30 00:22:04;;;;;;;;;;;;;;;;;;5073453;28;19914;-60
2023/04/30 00:24:30;;;;;;;;;;;;;;;;;;5066042;28;19917;-60
2023/04/30 00:26:56;;;;;;;;;;;;;;;;;;5052489;28;19939;-60
2023/04/30 00:29:22;;;;;;;;;;;;;;;;;;5043755;28;19916;-60
2023/04/30 00:31:48;;;;;;;;;;;;;;;;;;5038636;28;20320;-60
2023/04/30 00:34:14;;;;;;;;;;;;;;;;;;5053138;28;19958;-60
2023/04/30 00:36:40;;;;;;;;;;;;;;;;;;5051860;28;19912;-60
2023/04/30 00:39:06;;;;;;;;;;;;;;;;;;5052065;28;19913;-60
2023/04/30 00:41:32;;;;;;;;;;;;;;;;;;5052029;28;19923;-60
2023/04/30 00:43:57;;;;;;;;;;;;;;;;;;5052532;28;19948;-60
2023/04/30 00:46:23;;;;;;;;;;;;;;;;;;5045414;28;19967;-60
2023/04/30 00:48:49;;;;;;;;;;;;;;;;;;5040732;28;19947;-60
2023/04/30 00:51:15;;;;;;;;;;;;;;;;;;5055928;28;20397;-60
2023/04/30 00:53:41;;;;;;;;;;;;;;;;;;5033496;28;19909;-60
2023/04/30 00:56:07;;;;;;;;;;;;;;;;;;5052732;28;19917;-60
2023/04/30 00:58:33;;;;;;;;;;;;;;;;;;5057495;28;19944;-60
2023/04/30 01:00:59;;;;;;;;;;;;;;;;;;5051049;28;20348;-60
2023/04/30 01:03:25;;;;;;;;;;;;;;;;;;5051451;28;19921;-60
2023/04/30 01:05:52;;;;;;;;;;;;;;;;;;5068092;28;19909;-61
2023/04/30 01:08:18;;;;;;;;;;;;;;;;;;5072657;28;19961;-60
2023/04/30 01:10:44;;;;;;;;;;;;;;;;;;5072148;28;19913;-60
2023/04/30 01:13:10;;;;;;;;;;;;;;;;;;5072647;28;20374;-60
2023/04/30 01:15:36;;;;;;;;;;;;;;;;;;5064794;28;19913;-60
2023/04/30 01:18:01;;;;;;;;;;;;;;;;;;5067825;28;19991;-60
2023/04/30 01:20:27;;;;;;;;;;;;;;;;;;5052278;28;20430;-60
2023/04/30 01:22:54;;;;;;;;;;;;;;;;;;5052634;28;19916;-60
2023/04/30 01:25:19;;;;;;;;;;;;;;;;;;5052404;28;19908;-60
2023/04/30 01:27:45;;;;;;;;;;;;;;;;;;5052384;28;19979;-60
2023/04/30 01:30:11;;;;;;;;;;;;;;;;;;5039216;28;19948;-60
2023/04/30 01:32:37;;;;;;;;;;;;;;;;;;5050694;28;19921;-60
2023/04/30 01:35:03;;;;;;;;;;;;;;;;;;5051141;28;19959;-60
2023/04/30 01:37:29;;;;;;;;;;;;;;;;;;5050666;28;19966;-60
2023/04/30 01:39:55;;;;;;;;;;;;;;;;;;5050080;28;19924;-60
2023/04/30 01:42:21;;;;;;;;;;;;;;;;;;5055175;28;19912;-60
2023/04/30 01:44:47;;;;;;;;;;;;;;;;;;5050423;28;19920;-60
2023/04/30 01:47:13;;;;;;;;;;;;;;;;;;5052224;28;19946;-60
2023/04/30 01:49:39;;;;;;;;;;;;;;;;;;5048702;28;19967;-60
2023/04/30 01:52:05;;;;;;;;;;;;;;;;;;5040579;28;19952;-60
2023/04/30 01:54:31;;;;;;;;;;;;;;;;;;5051720;28;19995;-60
2023/04/30 01:56:57;;;;;;;;;;;;;;;;;;5052129;28;19913;-60
2023/04/30 01:59:22;;;;;;;;;;;;;;;;;;5051986;28;19921;-60
2023/04/30 02:01:48;;;;;;;;;;;;;;;;;;5052058;28;19961;-60
2023/04/30 02:04:14;;;;;;;;;;;;;;;;;;5056160;28;20383;-60
2023/04/30 02:06:40;;;;;;;;;;;;;;;;;;5054662;28;19921;-60
2023/04/30 02:09:06;;;;;;;;;;;;;;;;;;5068052;28;20407;-60
2023/04/30 02:11:32;;;;;;;;;;;;;;;;;;5055577;28;19909;-60
2023/04/30 02:13:58;;;;;;;;;;;;;;;;;;5055394;28;20295;-60
2023/04/30 02:16:24;;;;;;;;;;;;;;;;;;5055191;28;20368;-60
2023/04/30 02:18:50;;;;;;;;;;;;;;;;;;5056005;28;19908;-60
2023/04/30 02:21:16;;;;;;;;;;;;;;;;;;5052973;28;20081;-60
2023/04/30 02:23:42;;;;;;;;;;;;;;;;;;5054438;28;20003;-60
2023/04/30 02:26:08;;;;;;;;;;;;;;;;;;5055617;28;20387;-60
2023/04/30 02:28:34;;;;;;;;;;;;;;;;;;5054973;28;19916;-60
2023/04/30 02:31:00;;;;;;;;;;;;;;;;;;5055545;28;19940;-60
2023/04/30 02:33:26;;;;;;;;;;;;;;;;;;5054721;28;19983;-60
2023/04/30 02:35:54;;;;;;;;;;;;;;;;;;5054844;28;19921;-60
2023/04/30 02:38:19;;;;;;;;;;;;;;;;;;5053631;28;19913;-61
2023/04/30 02:40:45;;;;;;;;;;;;;;;;;;5051880;28;19941;-60
2023/04/30 02:43:11;;;;;;;;;;;;;;;;;;5057110;28;19913;-60
2023/04/30 02:45:37;;;;;;;;;;;;;;;;;;5049941;28;20345;-60
2023/04/30 02:48:03;;;;;;;;;;;;;;;;;;5041058;28;20013;-60
2023/04/30 02:50:29;;;;;;;;;;;;;;;;;;5054927;28;19982;-60
2023/04/30 02:52:55;;;;;;;;;;;;;;;;;;5055940;28;19913;-60
2023/04/30 02:55:21;;;;;;;;;;;;;;;;;;5039011;28;20420;-60
2023/04/30 02:57:47;;;;;;;;;;;;;;;;;;5048054;28;19912;-60
2023/04/30 03:00:13;;;;;;;;;;;;;;;;;;5054936;28;19912;-60
2023/04/30 03:02:39;;;;;;;;;;;;;;;;;;5043690;28;19935;-60
2023/04/30 03:05:05;;;;;;;;;;;;;;;;;;5050142;28;20402;-60
2023/04/30 03:07:30;;;;;;;;;;;;;;;;;;5051082;28;19983;-60
2023/04/30 03:09:56;;;;;;;;;;;;;;;;;;5054185;28;19952;-60
2023/04/30 03:12:22;;;;;;;;;;;;;;;;;;5053630;28;20411;-60
2023/04/30 03:14:48;;;;;;;;;;;;;;;;;;5044406;28;19912;-60
2023/04/30 03:17:14;;;;;;;;;;;;;;;;;;5040942;28;20399;-60
2023/04/30 03:19:40;;;;;;;;;;;;;;;;;;5056787;28;19912;-60
2023/04/30 03:22:06;;;;;;;;;;;;;;;;;;5052312;28;20272;-60
2023/04/30 03:24:32;;;;;;;;;;;;;;;;;;5055235;28;19944;-60
2023/04/30 03:26:58;;;;;;;;;;;;;;;;;;5055333;28;20013;-60
2023/04/30 03:29:24;;;;;;;;;;;;;;;;;;5057767;28;19913;-60
2023/04/30 03:31:50;;;;;;;;;;;;;;;;;;5054100;28;20365;-60
2023/04/30 03:34:15;;;;;;;;;;;;;;;;;;5052662;28;19923;-60
2023/04/30 03:36:41;;;;;;;;;;;;;;;;;;5051064;28;20697;-60
2023/04/30 03:39:08;;;;;;;;;;;;;;;;;;5051079;28;19924;-61
2023/04/30 03:41:34;;;;;;;;;;;;;;;;;;5049329;28;19913;-60
2023/04/30 03:44:00;;;;;;;;;;;;;;;;;;5054334;28;20314;-60
2023/04/30 03:46:26;;;;;;;;;;;;;;;;;;5050450;28;19956;-60
2023/04/30 03:48:53;;;;;;;;;;;;;;;;;;5053422;28;19927;-60
2023/04/30 03:51:19;;;;;;;;;;;;;;;;;;5050826;28;19917;-60
2023/04/30 03:53:45;;;;;;;;;;;;;;;;;;5044154;28;19978;-60
2023/04/30 03:56:11;;;;;;;;;;;;;;;;;;5053303;28;19916;-60
2023/04/30 03:58:37;;;;;;;;;;;;;;;;;;5052066;28;20012;-60
2023/04/30 04:01:03;;;;;;;;;;;;;;;;;;5054006;28;20373;-60
2023/04/30 04:03:28;;;;;;;;;;;;;;;;;;5037825;28;19932;-60
2023/04/30 04:05:54;;;;;;;;;;;;;;;;;;5048026;28;19983;-60
2023/04/30 04:08:20;;;;;;;;;;;;;;;;;;5051890;28;19948;-60
2023/04/30 04:10:46;;;;;;;;;;;;;;;;;;5051480;28;19959;-60
2023/04/30 04:13:12;;;;;;;;;;;;;;;;;;5051790;28;19920;-60
2023/04/30 04:15:38;;;;;;;;;;;;;;;;;;5052337;28;19923;-60
2023/04/30 04:18:06;;;;;;;;;;;;;;;;;;5052104;28;19967;-60
2023/04/30 04:20:32;;;;;;;;;;;;;;;;;;5052205;28;19913;-60
2023/04/30 04:22:58;;;;;;;;;;;;;;;;;;5050356;28;19923;-60
2023/04/30 04:25:24;;;;;;;;;;;;;;;;;;5053305;28;19963;-60
2023/04/30 04:27:51;;;;;;;;;;;;;;;;;;5049875;28;19948;-60
2023/04/30 04:30:16;;;;;;;;;;;;;;;;;;5050040;28;19913;-60
2023/04/30 04:32:47;;;;;;;;;;;;;;;;;;5049466;28;19962;-60
2023/04/30 04:35:13;;;;;;;;;;;;;;;;;;5043696;28;19967;-60
2023/04/30 04:37:38;;;;;;;;;;;;;;;;;;5049696;28;19916;-61
2023/04/30 04:40:04;;;;;;;;;;;;;;;;;;5039627;28;20007;-60
2023/04/30 04:42:31;;;;;;;;;;;;;;;;;;5054339;28;19969;-60
2023/04/30 04:44:57;;;;;;;;;;;;;;;;;;5048750;28;19935;-60
2023/04/30 04:47:23;;;;;;;;;;;;;;;;;;5050669;28;20393;-60
2023/04/30 04:49:49;;;;;;;;;;;;;;;;;;5046801;28;19913;-60
2023/04/30 04:52:15;;;;;;;;;;;;;;;;;;5049150;28;19956;-60
2023/04/30 04:54:41;;;;;;;;;;;;;;;;;;5050259;28;19960;-60
2023/04/30 04:57:06;;;;;;;;;;;;;;;;;;5059118;28;19919;-60
2023/04/30 04:59:32;;;;;;;;;;;;;;;;;;5050017;28;19948;-60
2023/04/30 05:01:58;;;;;;;;;;;;;;;;;;5050186;28;20264;-60
2023/04/30 05:04:24;;;;;;;;;;;;;;;;;;5051200;28;19913;-60
2023/04/30 05:06:50;;;;;;;;;;;;;;;;;;5051470;28;19983;-60
2023/04/30 05:09:16;;;;;;;;;;;;;;;;;;5059614;28;20514;-60
2023/04/30 05:11:43;;;;;;;;;;;;;;;;;;5051126;28;20379;-60
2023/04/30 05:14:09;;;;;;;;;;;;;;;;;;5047807;28;20363;-60
2023/04/30 05:16:35;;;;;;;;;;;;;;;;;;5047840;28;19917;-60
2023/04/30 05:19:01;;;;;;;;;;;;;;;;;;5049068;28;19963;-61
2023/04/30 05:21:28;;;;;;;;;;;;;;;;;;5046840;28;19957;-60
2023/04/30 05:23:54;;;;;;;;;;;;;;;;;;5048529;28;19947;-60
2023/04/30 05:26:22;;;;;;;;;;;;;;;;;;5048497;28;19986;-60
2023/04/30 05:28:48;;;;;;;;;;;;;;;;;;5052255;28;19920;-60
2023/04/30 05:31:14;;;;;;;;;;;;;;;;;;5041042;28;20015;-61
2023/04/30 05:33:40;;;;;;;;;;;;;;;;;;5046861;28;19952;-60
2023/04/30 05:36:06;;;;;;;;;;;;;;;;;;5048735;28;19913;-60
2023/04/30 05:38:32;;;;;;;;;;;;;;;;;;5043864;28;19952;-61
2023/04/30 05:40:57;;;;;;;;;;;;;;;;;;5046969;28;20683;-60
2023/04/30 05:43:23;;;;;;;;;;;;;;;;;;5048774;28;19912;-60
2023/04/30 05:45:49;;;;;;;;;;;;;;;;;;5048017;28;19963;-60
2023/04/30 05:48:15;;;;;;;;;;;;;;;;;;5048233;28;19925;-60
2023/04/30 05:50:42;;;;;;;;;;;;;;;;;;5048043;28;19952;-60
2023/04/30 05:53:08;;;;;;;;;;;;;;;;;;5051126;28;19931;-60
2023/04/30 05:55:34;;;;;;;;;;;;;;;;;;5047086;28;20007;-60
2023/04/30 05:58:00;;;;;;;;;;;;;;;;;;5048116;28;20315;-60
2023/04/30 06:00:26;;;;;;;;;;;;;;;;;;5057443;28;19960;-60
2023/04/30 06:02:52;;;;;;;;;;;;;;;;;;5045607;28;20376;-60
2023/04/30 06:05:17;;;;;;;;;;;;;;;;;;5048898;28;19916;-60
2023/04/30 06:07:43;;;;;;;;;;;;;;;;;;5049294;28;20373;-60
2023/04/30 06:10:10;;;;;;;;;;;;;;;;;;5050130;28;19913;-60
2023/04/30 06:12:36;;;;;;;;;;;;;;;;;;5049718;28;19975;-60
2023/04/30 06:15:02;;;;;;;;;;;;;;;;;;5049832;28;19963;-60
2023/04/30 06:17:28;;;;;;;;;;;;;;;;;;5041588;28;19999;-60
2023/04/30 06:19:54;;;;;;;;;;;;;;;;;;5046317;28;19945;-60
2023/04/30 06:22:20;;;;;;;;;;;;;;;;;;5047151;28;19917;-60
2023/04/30 06:24:46;;;;;;;;;;;;;;;;;;5043423;28;20060;-60
2023/04/30 06:27:12;;;;;;;;;;;;;;;;;;5052183;28;19960;-60
2023/04/30 06:29:38;;;;;;;;;;;;;;;;;;5038335;28;19920;-60
2023/04/30 06:32:04;;;;;;;;;;;;;;;;;;5041280;28;20391;-60
2023/04/30 06:34:30;;;;;;;;;;;;;;;;;;5047737;28;20327;-61
2023/04/30 06:36:56;;;;;;;;;;;;;;;;;;5046096;28;19917;-61
2023/04/30 06:39:22;;;;;;;;;;;;;;;;;;5036588;28;19917;-60
2023/04/30 06:41:48;;;;;;;;;;;;;;;;;;5041401;28;19940;-60
2023/04/30 06:44:13;;;;;;;;;;;;;;;;;;5042947;28;20321;-60
2023/04/30 06:46:39;;;;;;;;;;;;;;;;;;5043804;28;19944;-61
2023/04/30 06:49:06;;;;;;;;;;;;;;;;;;5049649;28;19989;-61
2023/04/30 06:51:32;;;;;;;;;;;;;;;;;;5050244;28;19986;-61
2023/04/30 06:53:58;;;;;;;;;;;;;;;;;;5050184;28;19921;-61
2023/04/30 06:56:24;;;;;;;;;;;;;;;;;;5046215;28;19917;-61
2023/04/30 06:58:50;;;;;;;;;;;;;;;;;;5051256;28;20017;-61
2023/04/30 07:01:16;;;;;;;;;;;;;;;;;;5047182;28;19912;-61
2023/04/30 07:03:42;;;;;;;;;;;;;;;;;;5048632;28;19920;-61
2023/04/30 07:06:08;;;;;;;;;;;;;;;;;;5044576;28;20061;-61
2023/04/30 07:08:34;;;;;;;;;;;;;;;;;;5042807;28;19960;-61
2023/04/30 07:11:00;;;;;;;;;;;;;;;;;;5045446;28;20537;-61
2023/04/30 07:13:26;;;;;;;;;;;;;;;;;;5047310;28;20031;-61
2023/04/30 07:15:52;;;;;;;;;;;;;;;;;;5049151;28;20007;-61
2023/04/30 07:18:18;;;;;;;;;;;;;;;;;;5047995;28;20016;-61
2023/04/30 07:20:44;;;;;;;;;;;;;;;;;;5047076;28;19960;-61
2023/04/30 07:23:10;;;;;;;;;;;;;;;;;;5061859;28;19957;-61
2023/04/30 07:25:36;;;;;;;;;;;;;;;;;;5049147;28;19959;-61
2023/04/30 07:28:02;;;;;;;;;;;;;;;;;;5044052;28;19924;-61
2023/04/30 07:30:28;;;;;;;;;;;;;;;;;;5048351;28;19960;-61
2023/04/30 07:32:54;;;;;;;;;;;;;;;;;;5051948;28;19999;-61
2023/04/30 07:35:20;;;;;;;;;;;;;;;;;;5044994;28;20503;-61
2023/04/30 07:37:46;;;;;;;;;;;;;;;;;;5051275;28;19991;-61
2023/04/30 07:40:12;;;;;;;;;;;;;;;;;;5049791;28;19920;-61
2023/04/30 07:42:38;;;;;;;;;;;;;;;;;;5046419;28;19952;-61
2023/04/30 07:45:04;;;;;;;;;;;;;;;;;;5049349;28;19920;-61
2023/04/30 07:47:30;;;;;;;;;;;;;;;;;;5034898;28;19924;-61
2023/04/30 07:49:56;;;;;;;;;;;;;;;;;;5042350;28;20006;-61
2023/04/30 07:52:22;;;;;;;;;;;;;;;;;;5042855;28;21742;-61
2023/04/30 07:54:48;;;;;;;;;;;;;;;;;;5045503;28;19960;-61
2023/04/30 07:57:14;;;;;;;;;;;;;;;;;;5042079;28;19947;-61
2023/04/30 07:59:40;;;;;;;;;;;;;;;;;;5040603;28;20375;-61
2023/04/30 08:02:06;;;;;;;;;;;;;;;;;;5026247;28;20507;-61
2023/04/30 08:04:32;;;;;;;;;;;;;;;;;;5042275;28;19932;-61
2023/04/30 08:06:58;;;;;;;;;;;;;;;;;;5043946;28;19925;-61
2023/04/30 08:09:24;;;;;;;;;;;;;;;;;;5050011;28;19924;-61
2023/04/30 08:11:50;;;;;;;;;;;;;;;;;;5043865;28;19960;-61
2023/04/30 08:14:16;;;;;;;;;;;;;;;;;;5039813;28;19933;-61
2023/04/30 08:16:42;;;;;;;;;;;;;;;;;;5040927;28;20466;-61
2023/04/30 08:19:08;;;;;;;;;;;;;;;;;;5049243;28;20446;-61
2023/04/30 08:21:34;;;;;;;;;;;;;;;;;;5041755;28;20440;-61
2023/04/30 08:24:00;;;;;;;;;;;;;;;;;;5045620;28;19921;-61
2023/04/30 08:26:26;;;;;;;;;;;;;;;;;;5047601;28;20367;-61
2023/04/30 08:28:52;;;;;;;;;;;;;;;;;;5041688;28;19964;-61
2023/04/30 08:31:18;;;;;;;;;;;;;;;;;;5044527;28;19964;-61
2023/04/30 08:33:44;;;;;;;;;;;;;;;;;;5041825;28;19958;-61
2023/04/30 08:36:10;;;;;;;;;;;;;;;;;;5041032;28;19921;-61
2023/04/30 08:38:36;;;;;;;;;;;;;;;;;;5039875;28;19951;-61
2023/04/30 08:41:02;;;;;;;;;;;;;;;;;;5046559;28;20399;-61
2023/04/30 08:43:28;;;;;;;;;;;;;;;;;;5039530;28;19987;-61
2023/04/30 08:45:54;;;;;;;;;;;;;;;;;;5048514;28;20448;-61
2023/04/30 08:48:20;;;;;;;;;;;;;;;;;;5044787;28;20396;-61
2023/04/30 08:50:46;;;;;;;;;;;;;;;;;;5044527;28;19913;-61
2023/04/30 08:53:14;;;;;;;;;;;;;;;;;;5045407;28;19975;-61
2023/04/30 08:55:40;;;;;;;;;;;;;;;;;;5051762;28;19923;-61
2023/04/30 08:58:06;;;;;;;;;;;;;;;;;;5042351;28;20011;-61
2023/04/30 09:00:32;;;;;;;;;;;;;;;;;;5050561;28;19970;-61
2023/04/30 09:02:58;;;;;;;;;;;;;;;;;;5047267;28;20434;-61
2023/04/30 09:05:24;;;;;;;;;;;;;;;;;;5036609;28;19931;-61
2023/04/30 09:07:50;;;;;;;;;;;;;;;;;;5046215;28;19917;-61
2023/04/30 09:10:16;;;;;;;;;;;;;;;;;;5044646;28;19982;-61
2023/04/30 09:12:44;;;;;;;;;;;;;;;;;;5043100;28;19921;-61
2023/04/30 09:15:10;;;;;;;;;;;;;;;;;;5054716;28;19956;-61
2023/04/30 09:17:36;;;;;;;;;;;;;;;;;;5037985;28;19963;-61
2023/04/30 09:20:02;;;;;;;;;;;;;;;;;;5035829;28;19913;-61
2023/04/30 09:22:28;;;;;;;;;;;;;;;;;;5044952;28;20692;-61
2023/04/30 09:24:54;;;;;;;;;;;;;;;;;;5043875;28;20340;-61
2023/04/30 09:27:20;;;;;;;;;;;;;;;;;;5041767;28;20019;-61
2023/04/30 09:29:46;;;;;;;;;;;;;;;;;;5045335;28;20001;-61
2023/04/30 09:32:12;;;;;;;;;;;;;;;;;;5053038;28;19923;-61
2023/04/30 09:34:38;;;;;;;;;;;;;;;;;;5051387;28;19999;-61
2023/04/30 09:37:04;;;;;;;;;;;;;;;;;;5043096;28;20007;-61
2023/04/30 09:39:30;;;;;;;;;;;;;;;;;;5068810;28;19912;-61
2023/04/30 09:41:56;;;;;;;;;;;;;;;;;;5048123;28;20070;-61
2023/04/30 09:44:22;;;;;;;;;;;;;;;;;;5041655;28;20369;-61
2023/04/30 09:46:48;;;;;;;;;;;;;;;;;;5066103;28;20116;-61
2023/04/30 09:49:14;;;;;;;;;;;;;;;;;;5057302;28;20320;-61
2023/04/30 09:51:40;;;;;;;;;;;;;;;;;;5050931;28;19995;-61
2023/04/30 09:54:05;;;;;;;;;;;;;;;;;;5048037;28;19909;-61
2023/04/30 09:56:31;;;;;;;;;;;;;;;;;;5051094;28;20352;-61
2023/04/30 09:58:57;;;;;;;;;;;;;;;;;;5047231;28;19912;-61
2023/04/30 10:01:23;;;;;;;;;;;;;;;;;;5038111;28;19921;-61
2023/04/30 10:03:49;;;;;;;;;;;;;;;;;;5047343;28;19944;-61
2023/04/30 10:06:18;;;;;;;;;;;;;;;;;;5046149;28;19931;-61
2023/04/30 10:08:44;;;;;;;;;;;;;;;;;;5043229;28;20361;-61
2023/04/30 10:11:15;;;;;;;;;;;;;;;;;;5044953;28;19917;-61
2023/04/30 10:13:41;;;;;;;;;;;;;;;;;;5046061;28;20402;-61
2023/04/30 10:16:07;;;;;;;;;;;;;;;;;;5035474;28;20004;-61
2023/04/30 10:18:33;;;;;;;;;;;;;;;;;;5050534;28;20578;-61
2023/04/30 10:20:59;;;;;;;;;;;;;;;;;;5039286;28;19919;-61
2023/04/30 10:23:25;;;;;;;;;;;;;;;;;;5044346;28;19956;-61
2023/04/30 10:25:51;;;;;;;;;;;;;;;;;;5046226;28;20404;-61
2023/04/30 10:28:17;;;;;;;;;;;;;;;;;;5043341;28;20007;-61
2023/04/30 10:30:43;;;;;;;;;;;;;;;;;;5060005;28;19995;-61
2023/04/30 10:33:10;;;;;;;;;;;;;;;;;;5073617;28;19909;-61
2023/04/30 10:35:36;;;;;;;;;;;;;;;;;;5059651;28;19912;-61
2023/04/30 10:38:02;;;;;;;;;;;;;;;;;;5041439;28;19921;-61
2023/04/30 10:40:28;;;;;;;;;;;;;;;;;;5055167;28;19923;-61
2023/04/30 10:42:54;;;;;;;;;;;;;;;;;;5055657;28;20422;-61
2023/04/30 10:45:20;;;;;;;;;;;;;;;;;;5061996;28;20381;-61
2023/04/30 10:47:46;;;;;;;;;;;;;;;;;;5058310;28;19955;-61
2023/04/30 10:50:12;;;;;;;;;;;;;;;;;;5057322;28;19916;-61
2023/04/30 10:52:39;;;;;;;;;;;;;;;;;;5057603;28;19936;-61
2023/04/30 10:55:04;;;;;;;;;;;;;;;;;;5052397;28;19913;-61
2023/04/30 10:57:31;;;;;;;;;;;;;;;;;;5049763;28;19952;-59
2023/04/30 10:59:57;;;;;;;;;;;;;;;;;;5060945;28;19916;-62
2023/04/30 11:02:23;;;;;;;;;;;;;;;;;;5063249;28;20274;-62
2023/04/30 11:04:48;;;;;;;;;;;;;;;;;;5053200;28;19960;-59
2023/04/30 11:07:14;;;;;;;;;;;;;;;;;;5054264;28;19956;-60
2023/04/30 11:09:40;;;;;;;;;;;;;;;;;;5052832;28;19917;-59
2023/04/30 11:12:06;;;;;;;;;;;;;;;;;;5050631;28;19919;-62
2023/04/30 11:14:33;;;;;;;;;;;;;;;;;;5040369;28;19952;-59
2023/04/30 11:17:00;;;;;;;;;;;;;;;;;;5034628;28;19923;-59
2023/04/30 11:19:26;;;;;;;;;;;;;;;;;;5044036;28;19919;-61
2023/04/30 11:21:52;;;;;;;;;;;;;;;;;;5053536;28;19913;-61
2023/04/30 11:24:17;;;;;;;;;;;;;;;;;;5052919;28;20353;-58
2023/04/30 11:26:43;;;;;;;;;;;;;;;;;;5052228;28;19998;-61
2023/04/30 11:29:10;;;;;;;;;;;;;;;;;;5051593;28;19919;-61
2023/04/30 11:31:36;;;;;;;;;;;;;;;;;;5039493;28;20328;-59
2023/04/30 11:34:02;;;;;;;;;;;;;;;;;;5050563;28;19936;-59
2023/04/30 11:36:28;;;;;;;;;;;;;;;;;;5048594;28;20051;-60
2023/04/30 11:38:54;;;;;;;;;;;;;;;;;;5050530;28;19913;-59
2023/04/30 11:41:20;;;;;;;;;;;;;;;;;;5046414;28;19978;-59
2023/04/30 11:43:46;;;;;;;;;;;;;;;;;;5045538;28;19943;-60
2023/04/30 11:46:12;;;;;;;;;;;;;;;;;;5053925;28;19909;-59
2023/04/30 11:48:38;;;;;;;;;;;;;;;;;;5054626;28;19917;-59
2023/04/30 11:51:04;;;;;;;;;;;;;;;;;;5048310;28;19923;-60
2023/04/30 11:53:30;;;;;;;;;;;;;;;;;;5048599;28;19909;-59
2023/04/30 11:55:56;;;;;;;;;;;;;;;;;;5049002;28;19921;-60
2023/04/30 11:58:22;;;;;;;;;;;;;;;;;;5051525;28;19916;-59
2023/04/30 12:00:48;;;;;;;;;;;;;;;;;;5048113;28;19909;-59
2023/04/30 12:03:16;;;;;;;;;;;;;;;;;;5047181;28;19963;-59
2023/04/30 12:05:41;;;;;;;;;;;;;;;;;;5044006;28;20261;-60
2023/04/30 12:08:08;;;;;;;;;;;;;;;;;;5046812;28;19971;-60
2023/04/30 12:10:34;;;;;;;;;;;;;;;;;;5052059;28;19912;-59
2023/04/30 12:13:00;;;;;;;;;;;;;;;;;;5050273;28;19963;-59
2023/04/30 12:15:26;;;;;;;;;;;;;;;;;;5051675;28;20054;-59
2023/04/30 12:17:52;;;;;;;;;;;;;;;;;;5051034;28;19913;-59
2023/04/30 12:20:18;;;;;;;;;;;;;;;;;;5050173;28;19913;-59
2023/04/30 12:22:44;;;;;;;;;;;;;;;;;;5047356;28;19916;-59
2023/04/30 12:25:10;;;;;;;;;;;;;;;;;;5045051;28;19960;-59
2023/04/30 12:27:36;;;;;;;;;;;;;;;;;;5051085;28;20357;-59
2023/04/30 12:30:02;;;;;;;;;;;;;;;;;;5047238;28;19917;-59
2023/04/30 12:32:28;;;;;;;;;;;;;;;;;;5047625;28;19935;-59
2023/04/30 12:34:54;;;;;;;;;;;;;;;;;;5051990;28;19912;-60
2023/04/30 12:37:20;;;;;;;;;;;;;;;;;;5047836;28;20007;-59
2023/04/30 12:39:46;;;;;;;;;;;;;;;;;;5048678;28;20453;-60
2023/04/30 12:42:12;;;;;;;;;;;;;;;;;;5050922;28;20273;-60
2023/04/30 12:44:38;;;;;;;;;;;;;;;;;;5051792;28;19912;-60
2023/04/30 12:47:04;;;;;;;;;;;;;;;;;;5051796;28;20036;-60
2023/04/30 12:49:30;;;;;;;;;;;;;;;;;;5046514;28;19914;-60
2023/04/30 12:51:56;;;;;;;;;;;;;;;;;;5045414;28;19920;-61
2023/04/30 12:54:21;;;;;;;;;;;;;;;;;;5047840;28;20340;-59
2023/04/30 12:56:48;;;;;;;;;;;;;;;;;;5050208;28;19996;-59
2023/04/30 12:59:15;;;;;;;;;;;;;;;;;;5046124;28;20284;-60
2023/04/30 13:01:41;;;;;;;;;;;;;;;;;;5050148;28;19963;-60
2023/04/30 13:04:08;;;;;;;;;;;;;;;;;;5045253;28;19940;-60
2023/04/30 13:06:34;;;;;;;;;;;;;;;;;;5051044;28;20800;-59
2023/04/30 13:09:00;;;;;;;;;;;;;;;;;;5048566;28;20007;-59
2023/04/30 13:11:26;;;;;;;;;;;;;;;;;;5049454;28;19968;-59
2023/04/30 13:13:54;;;;;;;;;;;;;;;;;;5049742;28;19968;-59
2023/04/30 13:16:20;;;;;;;;;;;;;;;;;;5046266;28;19916;-60
2023/04/30 13:18:45;;;;;;;;;;;;;;;;;;5045508;28;20463;-59
2023/04/30 13:21:12;;;;;;;;;;;;;;;;;;5043827;28;19912;-60
2023/04/30 13:23:37;;;;;;;;;;;;;;;;;;5045261;28;19935;-60
2023/04/30 13:26:03;;;;;;;;;;;;;;;;;;5050114;28;19912;-59
2023/04/30 13:28:29;;;;;;;;;;;;;;;;;;5049935;28;19960;-59
2023/04/30 13:30:55;;;;;;;;;;;;;;;;;;5042054;28;19956;-59
2023/04/30 13:33:21;;;;;;;;;;;;;;;;;;5044775;28;19920;-59
2023/04/30 13:35:48;;;;;;;;;;;;;;;;;;5051407;28;19909;-59
2023/04/30 13:38:14;;;;;;;;;;;;;;;;;;5048124;28;20354;-60
2023/04/30 13:40:40;;;;;;;;;;;;;;;;;;5050650;28;20018;-60
2023/04/30 13:43:06;;;;;;;;;;;;;;;;;;5049718;28;20098;-60
2023/04/30 13:45:32;;;;;;;;;;;;;;;;;;5050447;28;20347;-59
2023/04/30 13:47:58;;;;;;;;;;;;;;;;;;5049471;28;20004;-59
2023/04/30 13:50:24;;;;;;;;;;;;;;;;;;5037112;28;19913;-60
2023/04/30 13:52:50;;;;;;;;;;;;;;;;;;5056631;28;19909;-60
2023/04/30 13:55:16;;;;;;;;;;;;;;;;;;5048962;28;20356;-60
2023/04/30 13:57:42;;;;;;;;;;;;;;;;;;5043966;28;19917;-60
2023/04/30 14:00:08;;;;;;;;;;;;;;;;;;5053480;28;19915;-60
2023/04/30 14:02:34;;;;;;;;;;;;;;;;;;5053034;28;20405;-60
2023/04/30 14:05:02;;;;;;;;;;;;;;;;;;5048304;28;19948;-59
2023/04/30 14:07:28;;;;;;;;;;;;;;;;;;5051711;28;19987;-60
2023/04/30 14:09:53;;;;;;;;;;;;;;;;;;5053506;28;19940;-59
2023/04/30 14:12:20;;;;;;;;;;;;;;;;;;5054506;28;20373;-60
2023/04/30 14:14:46;;;;;;;;;;;;;;;;;;5055345;28;19913;-60
2023/04/30 14:17:12;;;;;;;;;;;;;;;;;;5055114;28;20013;-59
2023/04/30 14:19:38;;;;;;;;;;;;;;;;;;5055089;28;19909;-60
2023/04/30 14:22:04;;;;;;;;;;;;;;;;;;5052794;28;19913;-59
2023/04/30 14:24:30;;;;;;;;;;;;;;;;;;5053711;28;20399;-60
2023/04/30 14:26:56;;;;;;;;;;;;;;;;;;5053847;28;19912;-59
2023/04/30 14:29:22;;;;;;;;;;;;;;;;;;5054944;28;19927;-60
2023/04/30 14:31:48;;;;;;;;;;;;;;;;;;5054619;28;19952;-60
2023/04/30 14:34:14;;;;;;;;;;;;;;;;;;5054912;28;19951;-60
2023/04/30 14:36:40;;;;;;;;;;;;;;;;;;5053734;28;19923;-59
2023/04/30 14:39:06;;;;;;;;;;;;;;;;;;5052592;28;19975;-60
2023/04/30 14:41:32;;;;;;;;;;;;;;;;;;5043492;28;19913;-60
2023/04/30 14:43:58;;;;;;;;;;;;;;;;;;5051634;28;20328;-59
2023/04/30 14:46:23;;;;;;;;;;;;;;;;;;5054130;28;19909;-60
2023/04/30 14:48:49;;;;;;;;;;;;;;;;;;5054015;28;19939;-60
2023/04/30 14:51:15;;;;;;;;;;;;;;;;;;5043630;28;19947;-60
2023/04/30 14:53:42;;;;;;;;;;;;;;;;;;5039607;28;19919;-60
2023/04/30 14:56:08;;;;;;;;;;;;;;;;;;5050039;28;19917;-60
2023/04/30 14:58:33;;;;;;;;;;;;;;;;;;5048729;28;19958;-60
2023/04/30 15:01:00;;;;;;;;;;;;;;;;;;5032559;28;19964;-59
2023/04/30 15:03:25;;;;;;;;;;;;;;;;;;5048493;28;19917;-60
2023/04/30 15:05:51;;;;;;;;;;;;;;;;;;5046029;28;20316;-60
2023/04/30 15:08:17;;;;;;;;;;;;;;;;;;5043071;28;19969;-60
2023/04/30 15:10:43;;;;;;;;;;;;;;;;;;5041664;28;19913;-60
2023/04/30 15:13:09;;;;;;;;;;;;;;;;;;5044995;28;19983;-60
2023/04/30 15:15:36;;;;;;;;;;;;;;;;;;5036429;28;19959;-60
2023/04/30 15:18:02;;;;;;;;;;;;;;;;;;5042192;28;19942;-60
2023/04/30 15:20:30;;;;;;;;;;;;;;;;;;5033552;28;21374;-60
2023/04/30 15:22:56;;;;;;;;;;;;;;;;;;5043570;28;21897;-56
2023/04/30 15:25:25;;;;;;;;;;;;;;;;;;5039541;28;19959;-56
2023/04/30 15:27:51;;;;;;;;;;;;;;;;;;5040072;28;19921;-56
2023/04/30 15:30:17;;;;;;;;;;;;;;;;;;5040583;28;19917;-56
2023/04/30 15:32:43;;;;;;;;;;;;;;;;;;5037518;28;19916;-57
2023/04/30 15:35:09;;;;;;;;;;;;;;;;;;5042781;28;19966;-61
2023/04/30 15:37:35;;;;;;;;;;;;;;;;;;5047948;28;20004;-56
2023/04/30 15:40:01;;;;;;;;;;;;;;;;;;5045702;28;20361;-58
2023/04/30 15:42:30;;;;;;;;;;;;;;;;;;5049405;28;19923;-57
2023/04/30 15:44:55;;;;;;;;;;;;;;;;;;5039905;28;20005;-57
2023/04/30 15:47:21;;;;;;;;;;;;;;;;;;5053047;28;20066;-56
2023/04/30 15:49:47;;;;;;;;;;;;;;;;;;5043213;28;19935;-56
2023/04/30 15:52:13;;;;;;;;;;;;;;;;;;5035902;28;19960;-56
2023/04/30 15:54:39;;;;;;;;;;;;;;;;;;5042289;28;19959;-56
2023/04/30 15:57:05;;;;;;;;;;;;;;;;;;5041661;28;19921;-56
2023/04/30 15:59:31;;;;;;;;;;;;;;;;;;5040569;28;20266;-55
2023/04/30 16:01:57;;;;;;;;;;;;;;;;;;5045664;28;19919;-56
2023/04/30 16:04:23;;;;;;;;;;;;;;;;;;5048914;28;19956;-56
2023/04/30 16:06:49;;;;;;;;;;;;;;;;;;5047089;28;20425;-57
2023/04/30 16:09:18;;;;;;;;;;;;;;;;;;5051010;28;20011;-57
2023/04/30 16:11:44;;;;;;;;;;;;;;;;;;5049741;28;20250;-57
2023/04/30 16:14:11;;;;;;;;;;;;;;;;;;5026372;28;19956;-56
2023/04/30 16:16:36;;;;;;;;;;;;;;;;;;5030021;28;20465;-55
2023/04/30 16:19:02;;;;;;;;;;;;;;;;;;5046413;28;19920;-57
2023/04/30 16:21:31;;;;;;;;;;;;;;;;;;5042538;28;19965;-58
2023/04/30 16:23:57;;;;;;;;;;;;;;;;;;5042592;28;19913;-57
2023/04/30 16:26:23;;;;;;;;;;;;;;;;;;5048701;28;20434;-58
2023/04/30 16:28:49;;;;;;;;;;;;;;;;;;5043182;28;19925;-58
2023/04/30 16:31:15;;;;;;;;;;;;;;;;;;5045088;28;20456;-59
2023/04/30 16:33:41;;;;;;;;;;;;;;;;;;5046526;28;19913;-58
2023/04/30 16:36:07;;;;;;;;;;;;;;;;;;5042886;28;19913;-58